createdAt,value
2023-02-26T00:00:15.221Z,91.57
2023-02-26T00:03:18.481Z,92.16
2023-02-26T00:06:21.712Z,91.79
2023-02-26T00:09:24.841Z,92.31
2023-02-26T00:12:28.384Z,92.08
2023-02-26T00:15:31.498Z,92.44
2023-02-26T00:18:34.534Z,91.01
2023-02-26T00:21:37.654Z,90.79
2023-02-26T00:24:40.166Z,90.69
2023-02-26T00:27:44.097Z,91.37
2023-02-26T00:30:47.014Z,91.51
2023-02-26T00:33:50.561Z,91.94
2023-02-26T00:37:05.676Z,91.37
2023-02-26T00:40:46.934Z,91.08
2023-02-26T00:43:49.736Z,91.74
2023-02-26T00:47:09.792Z,92.36
2023-02-26T00:50:25.464Z,91.60
2023-02-26T00:53:47.269Z,92.11
2023-02-26T00:56:50.954Z,92.13
2023-02-26T00:59:53.956Z,92.68
2023-02-26T01:02:56.973Z,93.01
2023-02-26T01:06:00.168Z,93.57
2023-02-26T01:09:17.601Z,92.90
2023-02-26T01:12:20.641Z,93.34
2023-02-26T01:15:24.498Z,92.69
2023-02-26T01:18:41.508Z,91.78
2023-02-26T01:21:49.344Z,92.29
2023-02-26T01:25:04.913Z,92.56
2023-02-26T01:28:08.238Z,92.02
2023-02-26T01:31:36.806Z,92.06
2023-02-26T01:35:08.901Z,92.90
2023-02-26T01:38:20.867Z,92.35
2023-02-26T01:41:29.743Z,91.83
2023-02-26T01:44:43.068Z,92.14
2023-02-26T01:48:04.777Z,91.26
2023-02-26T01:51:08.945Z,92.00
2023-02-26T01:54:12.617Z,91.83
2023-02-26T01:57:18.294Z,92.86
2023-02-26T02:00:21.239Z,93.23
2023-02-26T02:03:27.580Z,93.55
2023-02-26T02:06:31.116Z,93.78
2023-02-26T02:09:34.807Z,93.83
2023-02-26T02:13:12.003Z,94.47
2023-02-26T02:16:28.426Z,94.52
2023-02-26T02:19:37.042Z,94.29
2023-02-26T02:22:53.895Z,94.28
2023-02-26T02:26:02.381Z,94.25
2023-02-26T02:29:23.237Z,94.79
2023-02-26T02:32:31.753Z,94.92
2023-02-26T02:35:42.658Z,94.87
2023-02-26T02:38:52.030Z,94.65
2023-02-26T02:42:37.049Z,94.87
2023-02-26T02:45:49.830Z,95.14
2023-02-26T02:49:03.789Z,95.04
2023-02-26T02:52:15.814Z,94.86
2023-02-26T02:55:29.273Z,95.40
2023-02-26T02:58:39.708Z,95.68
2023-02-26T03:01:45.484Z,95.76
2023-02-26T03:04:48.709Z,96.45
2023-02-26T03:08:04.940Z,96.63
2023-02-26T03:11:08.498Z,96.53
2023-02-26T03:14:14.974Z,96.30
2023-02-26T03:17:31.923Z,96.47
2023-02-26T03:20:39.095Z,96.10
2023-02-26T03:24:02.043Z,97.14
2023-02-26T03:27:11.457Z,96.92
2023-02-26T03:31:02.524Z,97.00
2023-02-26T03:34:37.631Z,97.42
2023-02-26T03:37:42.244Z,97.88
2023-02-26T03:40:55.491Z,97.06
2023-02-26T03:44:06.828Z,97.93
2023-02-26T03:47:15.112Z,97.61
2023-02-26T03:50:26.377Z,98.59
2023-02-26T03:53:36.515Z,98.72
2023-02-26T03:56:45.842Z,99.19
2023-02-26T04:00:00.859Z,99.03
2023-02-26T04:03:12.920Z,98.88
2023-02-26T04:06:16.713Z,99.33
2023-02-26T04:09:20.892Z,99.12
2023-02-26T04:12:26.622Z,98.56
2023-02-26T04:15:29.954Z,98.17
2023-02-26T04:18:32.842Z,98.83
2023-02-26T04:21:35.570Z,98.41
2023-02-26T04:24:40.229Z,98.66
2023-02-26T04:27:42.934Z,98.46
2023-02-26T04:30:46.341Z,99.06
2023-02-26T04:33:49.108Z,98.43
2023-02-26T04:36:51.977Z,98.35
2023-02-26T04:39:55.669Z,99.12
2023-02-26T04:42:58.546Z,99.21
2023-02-26T04:46:01.600Z,100.00
2023-02-26T04:49:05.413Z,98.75
2023-02-26T04:52:08.080Z,98.70
2023-02-26T04:55:11.818Z,98.58
2023-02-26T04:58:14.533Z,98.69
2023-02-26T05:01:17.381Z,98.14
2023-02-26T05:04:20.165Z,97.71
2023-02-26T05:07:23.248Z,97.64
2023-02-26T05:10:26.770Z,97.45
2023-02-26T05:13:29.684Z,97.64
2023-02-26T05:16:32.404Z,97.87
2023-02-26T05:19:35.237Z,98.81
2023-02-26T05:22:39.279Z,99.25
2023-02-26T05:25:43.062Z,99.12
2023-02-26T05:28:45.833Z,98.85
2023-02-26T05:31:48.927Z,99.62
2023-02-26T05:34:52.073Z,99.38
2023-02-26T05:37:54.941Z,99.54
2023-02-26T05:40:58.966Z,99.37
2023-02-26T05:44:02.595Z,99.82
2023-02-26T05:47:05.245Z,99.89
2023-02-26T05:50:09.235Z,99.40
2023-02-26T05:53:12.088Z,99.22
2023-02-26T05:56:16.338Z,99.35
2023-02-26T05:59:20.415Z,98.97
2023-02-26T06:02:23.529Z,99.00
2023-02-26T06:05:26.306Z,98.83
2023-02-26T06:08:28.830Z,98.92
2023-02-26T06:11:34.073Z,98.86
2023-02-26T06:14:36.802Z,98.12
2023-02-26T06:17:40.868Z,99.24
2023-02-26T06:20:43.918Z,98.86
2023-02-26T06:23:46.909Z,98.76
2023-02-26T06:26:49.377Z,98.22
2023-02-26T06:29:52.290Z,98.05
2023-02-26T06:32:54.900Z,97.93
2023-02-26T06:36:00.234Z,97.89
2023-02-26T06:39:03.607Z,97.87
2023-02-26T06:42:06.513Z,97.95
2023-02-26T06:45:09.446Z,98.00
2023-02-26T06:48:12.398Z,96.49
2023-02-26T06:51:15.309Z,96.44
2023-02-26T06:54:18.479Z,95.38
2023-02-26T06:57:21.006Z,95.13
2023-02-26T07:00:25.803Z,93.58
2023-02-26T07:03:28.480Z,94.27
2023-02-26T07:06:31.648Z,93.62
2023-02-26T07:09:34.386Z,92.17
2023-02-26T07:12:38.364Z,92.50
2023-02-26T07:15:40.924Z,91.21
2023-02-26T07:18:43.699Z,90.49
2023-02-26T07:21:46.677Z,90.32
2023-02-26T07:24:50.227Z,89.68
2023-02-26T07:27:53.035Z,90.39
2023-02-26T07:30:57.133Z,88.61
2023-02-26T07:34:00.219Z,88.88
2023-02-26T07:37:03.510Z,88.28
2023-02-26T07:40:06.924Z,87.33
2023-02-26T07:43:09.821Z,88.12
2023-02-26T07:46:12.881Z,87.06
2023-02-26T07:49:15.955Z,85.41
2023-02-26T07:52:18.726Z,84.98
2023-02-26T07:55:22.151Z,86.01
2023-02-26T07:58:24.625Z,84.10
2023-02-26T08:01:27.515Z,83.00
2023-02-26T08:04:33.005Z,83.34
2023-02-26T08:07:35.697Z,83.02
2023-02-26T08:10:41.895Z,83.31
2023-02-26T08:13:44.746Z,82.98
2023-02-26T08:16:47.607Z,83.59
2023-02-26T08:19:50.252Z,82.45
2023-02-26T08:22:53.449Z,81.65
2023-02-26T08:26:08.643Z,81.59
2023-02-26T08:29:11.455Z,82.68
2023-02-26T08:32:15.805Z,84.13
2023-02-26T08:35:18.954Z,83.95
2023-02-26T08:38:21.599Z,83.58
2023-02-26T08:41:27.638Z,82.62
2023-02-26T08:44:30.682Z,83.23
2023-02-26T08:47:39.389Z,82.99
2023-02-26T08:50:42.264Z,81.57
2023-02-26T08:53:47.332Z,81.46
2023-02-26T08:56:49.893Z,82.27
2023-02-26T08:59:52.855Z,80.86
2023-02-26T09:02:58.613Z,80.53
2023-02-26T09:06:01.922Z,80.92
2023-02-26T09:09:04.877Z,81.16
2023-02-26T09:12:07.899Z,78.47
2023-02-26T09:15:11.794Z,79.00
2023-02-26T09:18:15.728Z,77.64
2023-02-26T09:21:18.469Z,76.87
2023-02-26T09:24:21.962Z,74.24
2023-02-26T09:27:25.187Z,74.79
2023-02-26T09:30:28.341Z,74.06
2023-02-26T09:33:30.926Z,72.91
2023-02-26T09:36:33.821Z,72.01
2023-02-26T09:39:37.068Z,71.15
2023-02-26T09:42:57.277Z,65.91
2023-02-26T09:46:06.190Z,66.82
2023-02-26T09:49:34.005Z,66.55
2023-02-26T09:53:08.029Z,66.18
2023-02-26T09:56:18.691Z,67.00
2023-02-26T09:59:21.477Z,66.21
2023-02-26T10:02:36.290Z,64.42
2023-02-26T10:06:19.568Z,63.88
2023-02-26T10:09:41.844Z,61.49
2023-02-26T10:12:45.952Z,62.26
2023-02-26T10:15:52.609Z,61.39
2023-02-26T10:19:01.010Z,62.05
2023-02-26T10:22:48.680Z,61.23
2023-02-26T10:26:24.298Z,61.68
2023-02-26T10:30:28.706Z,60.84
2023-02-26T10:33:46.125Z,61.82
2023-02-26T10:37:08.889Z,62.19
2023-02-26T10:40:39.830Z,62.39
2023-02-26T10:43:47.943Z,63.22
2023-02-26T10:47:05.837Z,61.65
2023-02-26T10:50:14.581Z,61.90
2023-02-26T10:53:17.848Z,59.62
2023-02-26T10:56:32.407Z,60.77
2023-02-26T10:59:35.198Z,59.11
2023-02-26T11:02:44.291Z,58.65
2023-02-26T11:05:48.902Z,58.29
2023-02-26T11:08:55.055Z,58.13
2023-02-26T11:12:14.166Z,57.87
2023-02-26T11:15:22.780Z,59.07
2023-02-26T11:18:41.198Z,59.41
2023-02-26T11:21:47.186Z,60.18
2023-02-26T11:24:53.378Z,60.10
2023-02-26T11:28:02.482Z,59.00
2023-02-26T11:31:07.852Z,58.31
2023-02-26T11:34:12.446Z,59.88
2023-02-26T11:37:35.641Z,58.59
2023-02-26T11:40:41.482Z,57.83
2023-02-26T11:43:48.104Z,57.77
2023-02-26T11:46:58.862Z,58.26
2023-02-26T11:50:10.428Z,59.36
2023-02-26T11:53:30.292Z,59.39
2023-02-26T11:56:40.426Z,59.80
2023-02-26T11:59:48.483Z,59.33
2023-02-26T12:02:51.796Z,59.65
2023-02-26T12:05:54.955Z,59.91
2023-02-26T12:08:57.663Z,59.36
2023-02-26T12:12:10.332Z,60.71
2023-02-26T12:15:24.227Z,60.72
2023-02-26T12:18:48.915Z,59.74
2023-02-26T12:21:54.406Z,58.23
2023-02-26T12:25:00.356Z,57.17
2023-02-26T12:28:23.982Z,58.16
2023-02-26T12:31:38.770Z,57.17
2023-02-26T12:35:15.672Z,57.56
2023-02-26T12:38:26.103Z,57.77
2023-02-26T12:41:59.738Z,57.62
2023-02-26T12:45:37.957Z,56.88
2023-02-26T12:48:40.463Z,57.00
2023-02-26T12:52:06.019Z,57.22
2023-02-26T12:55:11.208Z,54.07
2023-02-26T12:58:44.431Z,53.75
2023-02-26T13:02:01.991Z,54.61
2023-02-26T13:05:36.843Z,53.81
2023-02-26T13:08:57.907Z,53.72
2023-02-26T13:12:26.013Z,54.85
2023-02-26T13:15:46.641Z,55.07
2023-02-26T13:18:58.073Z,55.95
2023-02-26T13:22:14.865Z,55.48
2023-02-26T13:25:48.752Z,55.50
2023-02-26T13:28:59.569Z,56.24
2023-02-26T13:32:13.797Z,60.22
2023-02-26T13:35:28.897Z,62.50
2023-02-26T13:38:55.761Z,64.40
2023-02-26T13:42:01.361Z,61.92
2023-02-26T13:45:35.992Z,62.52
2023-02-26T13:48:57.169Z,60.70
2023-02-26T13:52:03.919Z,61.75
2023-02-26T13:55:06.843Z,60.22
2023-02-26T13:58:22.099Z,60.42
2023-02-26T14:01:32.393Z,60.79
2023-02-26T14:04:51.911Z,62.36
2023-02-26T14:08:10.821Z,62.50
2023-02-26T14:11:33.058Z,64.67
2023-02-26T14:14:41.225Z,65.67
2023-02-26T14:17:51.027Z,65.53
2023-02-26T14:21:25.703Z,67.30
2023-02-26T14:24:39.853Z,68.46
2023-02-26T14:27:45.027Z,68.13
2023-02-26T14:30:51.593Z,68.50
2023-02-26T14:34:08.207Z,69.57
2023-02-26T14:37:15.339Z,70.74
2023-02-26T14:40:21.657Z,70.17
2023-02-26T14:43:45.355Z,70.24
2023-02-26T14:46:49.926Z,71.08
2023-02-26T14:49:59.529Z,69.99
2023-02-26T14:53:24.771Z,70.66
2023-02-26T14:56:58.695Z,68.69
2023-02-26T15:00:12.458Z,68.04
2023-02-26T15:03:21.561Z,68.08
2023-02-26T15:06:24.065Z,69.29
2023-02-26T15:10:09.898Z,64.38
2023-02-26T15:13:16.680Z,63.57
2023-02-26T15:16:45.345Z,64.20
2023-02-26T15:20:16.511Z,63.97
2023-02-26T15:23:34.911Z,64.60
2023-02-26T15:26:45.376Z,64.96
2023-02-26T15:29:52.647Z,65.43
2023-02-26T15:33:00.667Z,66.96
2023-02-26T15:36:12.425Z,68.49
2023-02-26T15:39:17.554Z,69.50
2023-02-26T15:42:26.564Z,69.76
2023-02-26T15:45:37.802Z,70.16
2023-02-26T15:48:44.669Z,68.99
2023-02-26T15:51:47.761Z,67.40
2023-02-26T15:54:55.200Z,67.68
2023-02-26T15:57:58.994Z,67.35
2023-02-26T16:01:04.201Z,67.32
2023-02-26T16:04:17.237Z,67.74
2023-02-26T16:07:20.246Z,66.84
2023-02-26T16:10:38.266Z,65.96
2023-02-26T16:13:43.624Z,66.59
2023-02-26T16:16:53.502Z,67.36
2023-02-26T16:19:59.232Z,67.63
2023-02-26T16:23:11.611Z,66.86
2023-02-26T16:26:19.870Z,67.39
2023-02-26T16:29:29.609Z,67.59
2023-02-26T16:32:34.791Z,68.03
2023-02-26T16:35:42.092Z,67.63
2023-02-26T16:38:49.731Z,67.30
2023-02-26T16:42:31.521Z,69.05
2023-02-26T16:45:36.831Z,68.81
2023-02-26T16:48:47.445Z,69.05
2023-02-26T16:51:51.639Z,69.33
2023-02-26T16:55:00.583Z,69.65
2023-02-26T16:58:07.726Z,70.09
2023-02-26T17:01:16.594Z,71.34
2023-02-26T17:04:20.901Z,71.31
2023-02-26T17:07:27.828Z,71.54
2023-02-26T17:10:49.982Z,72.04
2023-02-26T17:14:10.414Z,72.30
2023-02-26T17:17:12.978Z,72.54
2023-02-26T17:20:16.340Z,72.63
2023-02-26T17:23:22.433Z,73.55
2023-02-26T17:26:25.590Z,75.07
2023-02-26T17:29:36.296Z,76.75
2023-02-26T17:32:39.109Z,77.15
2023-02-26T17:35:43.047Z,77.46
2023-02-26T17:38:47.245Z,77.33
2023-02-26T17:41:49.822Z,77.55
2023-02-26T17:44:55.045Z,77.78
2023-02-26T17:47:58.521Z,78.00
2023-02-26T17:51:01.517Z,77.96
2023-02-26T17:54:04.160Z,78.18
2023-02-26T17:57:07.458Z,78.72
2023-02-26T18:00:15.039Z,80.38
2023-02-26T18:03:19.974Z,80.32
2023-02-26T18:06:24.646Z,80.72
2023-02-26T18:09:27.377Z,81.02
2023-02-26T18:12:30.594Z,81.43
2023-02-26T18:15:33.195Z,81.52
2023-02-26T18:18:36.178Z,82.21
2023-02-26T18:21:38.787Z,81.31
2023-02-26T18:24:42.456Z,81.84
2023-02-26T18:27:48.471Z,81.86
2023-02-26T18:30:52.512Z,81.74
2023-02-26T18:33:55.199Z,81.79
2023-02-26T18:36:58.177Z,82.44
2023-02-26T18:40:00.808Z,82.61
2023-02-26T18:43:04.032Z,82.85
2023-02-26T18:46:07.256Z,82.57
2023-02-26T18:49:20.226Z,82.28
2023-02-26T18:52:23.062Z,81.43
2023-02-26T18:55:26.396Z,82.33
2023-02-26T18:58:29.014Z,81.50
2023-02-26T19:01:32.184Z,81.42
2023-02-26T19:04:35.174Z,80.96
2023-02-26T19:07:38.459Z,81.62
2023-02-26T19:10:41.280Z,79.98
2023-02-26T19:13:45.433Z,80.13
2023-02-26T19:16:48.145Z,79.98
2023-02-26T19:19:51.079Z,80.33
2023-02-26T19:22:54.270Z,80.42
2023-02-26T19:25:57.196Z,80.55
2023-02-26T19:29:00.608Z,80.42
2023-02-26T19:32:07.463Z,80.99
2023-02-26T19:35:10.297Z,81.11
2023-02-26T19:38:13.445Z,81.06
2023-02-26T19:41:19.996Z,81.26
2023-02-26T19:44:25.491Z,81.52
2023-02-26T19:47:28.101Z,81.42
2023-02-26T19:50:31.341Z,80.64
2023-02-26T19:53:34.899Z,80.28
2023-02-26T19:56:37.972Z,80.36
2023-02-26T19:59:40.656Z,80.00
2023-02-26T20:02:43.670Z,79.43
2023-02-26T20:05:47.587Z,80.09
2023-02-26T20:08:50.211Z,81.08
2023-02-26T20:11:53.226Z,80.90
2023-02-26T20:14:56.426Z,81.31
2023-02-26T20:17:59.384Z,81.89
2023-02-26T20:21:06.874Z,82.07
2023-02-26T20:24:09.848Z,81.45
2023-02-26T20:27:12.438Z,80.75
2023-02-26T20:30:15.646Z,81.02
2023-02-26T20:33:18.624Z,80.87
2023-02-26T20:36:21.571Z,79.42
2023-02-26T20:39:24.166Z,77.17
2023-02-26T20:42:27.079Z,77.97
2023-02-26T20:45:29.990Z,74.80
2023-02-26T20:48:34.322Z,73.79
2023-02-26T20:51:41.548Z,72.58
2023-02-26T20:54:44.964Z,71.07
2023-02-26T20:57:47.650Z,68.32
2023-02-26T21:00:52.272Z,63.55
2023-02-26T21:03:54.872Z,61.84
2023-02-26T21:07:12.840Z,61.95
2023-02-26T21:10:17.845Z,61.85
2023-02-26T21:13:20.890Z,61.54
2023-02-26T21:16:23.567Z,60.64
2023-02-26T21:19:26.448Z,58.94
2023-02-26T21:22:29.384Z,57.12
2023-02-26T21:25:32.214Z,56.34
2023-02-26T21:28:35.207Z,55.00
2023-02-26T21:31:38.073Z,55.25
2023-02-26T21:34:40.862Z,55.37
2023-02-26T21:37:44.818Z,55.17
2023-02-26T21:40:47.745Z,55.74
2023-02-26T21:43:51.018Z,54.98
2023-02-26T21:46:53.988Z,55.49
2023-02-26T21:49:56.897Z,56.55
2023-02-26T21:52:59.565Z,57.20
2023-02-26T21:56:02.457Z,57.39
2023-02-26T21:59:04.978Z,58.15
2023-02-26T22:02:10.971Z,57.38
2023-02-26T22:05:13.957Z,58.25
2023-02-26T22:08:16.508Z,58.68
2023-02-26T22:11:19.498Z,59.68
2023-02-26T22:14:22.331Z,59.67
2023-02-26T22:17:25.469Z,59.44
2023-02-26T22:20:28.266Z,60.08
2023-02-26T22:23:31.199Z,60.50
2023-02-26T22:26:33.717Z,60.57
2023-02-26T22:29:36.493Z,60.62
2023-02-26T22:32:39.056Z,60.08
2023-02-26T22:35:42.989Z,61.03
2023-02-26T22:38:48.212Z,61.76
2023-02-26T22:41:51.038Z,61.71
2023-02-26T22:44:53.605Z,63.57
2023-02-26T22:47:56.384Z,64.04
2023-02-26T22:50:58.962Z,64.85
2023-02-26T22:54:02.188Z,65.14
2023-02-26T22:57:05.433Z,65.36
2023-02-26T23:00:15.019Z,66.11
2023-02-26T23:03:17.549Z,65.99
2023-02-26T23:06:21.360Z,65.84
2023-02-26T23:09:24.292Z,66.13
2023-02-26T23:12:28.664Z,65.90
2023-02-26T23:15:31.385Z,66.48
2023-02-26T23:18:36.420Z,66.71
2023-02-26T23:21:39.168Z,66.86
2023-02-26T23:24:42.503Z,67.70
2023-02-26T23:27:45.242Z,67.66
2023-02-26T23:30:48.210Z,68.38
2023-02-26T23:33:50.729Z,67.26
2023-02-26T23:36:53.566Z,67.90
2023-02-26T23:39:56.787Z,68.19
2023-02-26T23:42:59.709Z,68.65
2023-02-26T23:46:02.599Z,69.47
2023-02-26T23:49:05.673Z,69.65
2023-02-26T23:52:09.928Z,69.81
2023-02-26T23:55:12.931Z,70.03
2023-02-26T23:58:15.414Z,69.72
